Pennsville, Ohio
Current Conditions -  °F | °C
As of 9:53 PM on Monday 22 Dec 2014 (Local Time) from KPKB Reporting Station
Overcast Overcast  
Wind Chill: 44°   Ceiling: 9500
Heat Index: 48°   Visibility: 10mi
Dew Point: 38°   Wind: 8mph
Humidity: 68%   Direction: 140°SE
Pressure: 29.92"   Gusts: NA
Location:  39.5584°N, 81.8439°W
Report Text: KPKB 230253Z 14007KT 10SM OVC095 09/03 A2992 RMK AO2 SLP134 T00890033 55001
Loading
Personal Weather Stations






























Interactive Weather Map New forecast layout! Learn more

10-Day Weather Forecast

Advertisements
Track Severe Weather on mobile